sensor_id;sensor_type;location;lat;lon;timestamp;pressure;altitude;pressure_sealevel;temperature;humidity
17785;BME280;9016;53.582;10.062;2022-09-09T00:02:01;100750.34;;;17.23;100.00
17785;BME280;9016;53.582;10.062;2022-09-09T00:04:34;100750.34;;;17.23;100.00
17785;BME280;9016;53.582;10.062;2022-09-09T00:07:05;100743.56;;;17.29;100.00
17785;BME280;9016;53.582;10.062;2022-09-09T00:09:39;100749.41;;;17.34;100.00
17785;BME280;9016;53.582;10.062;2022-09-09T00:12:12;100748.56;;;17.33;100.00
17785;BME280;9016;53.582;10.062;2022-09-09T00:14:47;100749.66;;;17.31;100.00
17785;BME280;9016;53.582;10.062;2022-09-09T00:17:30;100747.13;;;17.29;100.00
17785;BME280;9016;53.582;10.062;2022-09-09T00:20:09;100746.84;;;17.32;100.00
17785;BME280;9016;53.582;10.062;2022-09-09T00:22:42;100744.13;;;17.32;100.00
17785;BME280;9016;53.582;10.062;2022-09-09T00:25:16;100753.09;;;17.33;100.00
17785;BME280;9016;53.582;10.062;2022-09-09T00:27:50;100758.59;;;17.31;100.00
17785;BME280;9016;53.582;10.062;2022-09-09T00:30:20;100760.31;;;17.32;100.00
17785;BME280;9016;53.582;10.062;2022-09-09T00:32:50;100756.88;;;17.30;100.00
17785;BME280;9016;53.582;10.062;2022-09-09T00:35:23;100755.06;;;17.31;100.00
17785;BME280;9016;53.582;10.062;2022-09-09T00:37:54;100751.66;;;17.29;100.00
17785;BME280;9016;53.582;10.062;2022-09-09T00:40:28;100756.44;;;17.25;100.00
17785;BME280;9016;53.582;10.062;2022-09-09T00:43:21;100750.34;;;17.23;100.00
17785;BME280;9016;53.582;10.062;2022-09-09T00:49:04;100741.44;;;17.23;100.00
17785;BME280;9016;53.582;10.062;2022-09-09T00:51:45;100751.47;;;17.21;100.00
17785;BME280;9016;53.582;10.062;2022-09-09T00:54:27;100755.88;;;17.22;100.00
17785;BME280;9016;53.582;10.062;2022-09-09T00:57:05;100746.34;;;17.18;100.00
17785;BME280;9016;53.582;10.062;2022-09-09T00:59:45;100745.50;;;17.17;100.00
17785;BME280;9016;53.582;10.062;2022-09-09T01:02:18;100744.91;;;17.14;100.00
17785;BME280;9016;53.582;10.062;2022-09-09T01:04:48;100752.59;;;17.18;100.00
17785;BME280;9016;53.582;10.062;2022-09-09T01:07:17;100746.63;;;17.15;100.00
17785;BME280;9016;53.582;10.062;2022-09-09T01:09:52;100749.69;;;17.10;100.00
17785;BME280;9016;53.582;10.062;2022-09-09T01:12:30;100747.16;;;17.09;100.00
17785;BME280;9016;53.582;10.062;2022-09-09T01:15:09;100749.63;;;17.01;100.00
17785;BME280;9016;53.582;10.062;2022-09-09T01:17:46;100747.66;;;16.93;100.00
17785;BME280;9016;53.582;10.062;2022-09-09T01:20:20;100739.56;;;16.93;100.00
17785;BME280;9016;53.582;10.062;2022-09-09T01:23:07;100743.38;;;16.91;100.00
17785;BME280;9016;53.582;10.062;2022-09-09T01:26:08;100752.41;;;16.90;100.00
17785;BME280;9016;53.582;10.062;2022-09-09T01:28:38;100745.84;;;16.82;100.00
17785;BME280;9016;53.582;10.062;2022-09-09T01:31:09;100747.56;;;16.83;100.00
17785;BME280;9016;53.582;10.062;2022-09-09T01:33:39;100749.41;;;16.83;100.00
17785;BME280;9016;53.582;10.062;2022-09-09T01:36:09;100747.56;;;16.83;100.00
17785;BME280;9016;53.582;10.062;2022-09-09T01:38:38;100746.84;;;16.81;100.00
17785;BME280;9016;53.582;10.062;2022-09-09T01:41:08;100747.72;;;16.82;100.00
17785;BME280;9016;53.582;10.062;2022-09-09T01:43:37;100740.47;;;16.82;100.00
17785;BME280;9016;53.582;10.062;2022-09-09T01:46:05;100741.34;;;16.83;100.00
17785;BME280;9016;53.582;10.062;2022-09-09T01:48:33;100742.72;;;16.77;100.00
17785;BME280;9016;53.582;10.062;2022-09-09T01:51:01;100740.75;;;16.79;100.00
17785;BME280;9016;53.582;10.062;2022-09-09T01:53:29;100741.25;;;16.73;100.00
17785;BME280;9016;53.582;10.062;2022-09-09T01:56:04;100730.25;;;16.76;100.00
17785;BME280;9016;53.582;10.062;2022-09-09T01:58:50;100734.50;;;16.79;100.00
17785;BME280;9016;53.582;10.062;2022-09-09T02:01:28;100733.19;;;16.73;100.00
17785;BME280;9016;53.582;10.062;2022-09-09T02:04:03;100730.78;;;16.70;100.00
17785;BME280;9016;53.582;10.062;2022-09-09T02:06:38;100733.47;;;16.70;100.00
17785;BME280;9016;53.582;10.062;2022-09-09T02:09:10;100728.47;;;16.66;100.00
17785;BME280;9016;53.582;10.062;2022-09-09T02:11:42;100728.47;;;16.66;100.00
17785;BME280;9016;53.582;10.062;2022-09-09T02:14:16;100735.56;;;16.67;100.00
17785;BME280;9016;53.582;10.062;2022-09-09T02:16:50;100741.19;;;16.64;100.00
17785;BME280;9016;53.582;10.062;2022-09-09T02:19:23;100736.22;;;16.59;100.00
17785;BME280;9016;53.582;10.062;2022-09-09T02:21:55;100741.16;;;16.54;100.00
17785;BME280;9016;53.582;10.062;2022-09-09T02:24:25;100739.41;;;16.53;100.00
17785;BME280;9016;53.582;10.062;2022-09-09T02:26:56;100737.13;;;16.49;100.00
17785;BME280;9016;53.582;10.062;2022-09-09T02:29:30;100736.38;;;16.47;100.00
17785;BME280;9016;53.582;10.062;2022-09-09T02:32:02;100735.28;;;16.49;100.00
17785;BME280;9016;53.582;10.062;2022-09-09T02:34:34;100738.09;;;16.48;100.00
17785;BME280;9016;53.582;10.062;2022-09-09T02:37:05;100737.84;;;16.51;100.00
17785;BME280;9016;53.582;10.062;2022-09-09T02:39:34;100733.31;;;16.51;100.00
17785;BME280;9016;53.582;10.062;2022-09-09T02:42:03;100742.53;;;16.49;100.00
17785;BME280;9016;53.582;10.062;2022-09-09T02:44:34;100734.19;;;16.52;100.00
17785;BME280;9016;53.582;10.062;2022-09-09T02:47:14;100728.06;;;16.50;100.00
17785;BME280;9016;53.582;10.062;2022-09-09T02:49:52;100734.03;;;16.53;100.00
17785;BME280;9016;53.582;10.062;2022-09-09T02:52:29;100735.88;;;16.53;100.00
17785;BME280;9016;53.582;10.062;2022-09-09T02:55:04;100734.31;;;16.50;100.00
17785;BME280;9016;53.582;10.062;2022-09-09T02:57:35;100739.56;;;16.52;100.00
17785;BME280;9016;53.582;10.062;2022-09-09T03:00:06;100742.53;;;16.49;100.00
17785;BME280;9016;53.582;10.062;2022-09-09T03:02:34;100737.97;;;16.49;100.00
17785;BME280;9016;53.582;10.062;2022-09-09T03:05:02;100737.13;;;16.49;100.00
17785;BME280;9016;53.582;10.062;2022-09-09T03:07:31;100735.41;;;16.48;100.00
17785;BME280;9016;53.582;10.062;2022-09-09T03:09:59;100734.06;;;16.42;100.00
17785;BME280;9016;53.582;10.062;2022-09-09T03:12:27;100730.41;;;16.43;100.00
17785;BME280;9016;53.582;10.062;2022-09-09T03:14:55;100741.41;;;16.40;100.00
17785;BME280;9016;53.582;10.062;2022-09-09T03:17:24;100740.81;;;16.37;100.00
17785;BME280;9016;53.582;10.062;2022-09-09T03:19:55;100740.09;;;16.35;100.00
17785;BME280;9016;53.582;10.062;2022-09-09T03:22:24;100740.81;;;16.37;100.00
17785;BME280;9016;53.582;10.062;2022-09-09T03:24:52;100734.34;;;16.39;100.00
17785;BME280;9016;53.582;10.062;2022-09-09T03:27:20;100737.25;;;16.36;100.00
17785;BME280;9016;53.582;10.062;2022-09-09T03:29:48;100737.25;;;16.36;100.00
17785;BME280;9016;53.582;10.062;2022-09-09T03:32:17;100735.84;;;16.32;100.00
17785;BME280;9016;53.582;10.062;2022-09-09T03:34:47;100726.69;;;16.24;100.00
17785;BME280;9016;53.582;10.062;2022-09-09T03:37:16;100730.09;;;16.26;100.00
17785;BME280;9016;53.582;10.062;2022-09-09T03:39:44;100736.59;;;16.23;100.00
17785;BME280;9016;53.582;10.062;2022-09-09T03:42:12;100727.81;;;16.21;100.00
17785;BME280;9016;53.582;10.062;2022-09-09T03:44:45;100734.56;;;16.16;100.00
17785;BME280;9016;53.582;10.062;2022-09-09T03:47:17;100733.94;;;16.12;100.00
17785;BME280;9016;53.582;10.062;2022-09-09T03:49:47;100740.91;;;16.15;100.00
17785;BME280;9016;53.582;10.062;2022-09-09T03:52:15;100746.88;;;16.18;100.00
17785;BME280;9016;53.582;10.062;2022-09-09T03:54:49;100747.88;;;16.17;100.00
17785;BME280;9016;53.582;10.062;2022-09-09T03:57:17;100751.16;;;16.21;100.00
17785;BME280;9016;53.582;10.062;2022-09-09T03:59:45;100744.19;;;16.18;100.00
17785;BME280;9016;53.582;10.062;2022-09-09T04:02:13;100758.84;;;16.14;100.00
17785;BME280;9016;53.582;10.062;2022-09-09T04:04:42;100747.16;;;16.15;100.00
17785;BME280;9016;53.582;10.062;2022-09-09T04:07:11;100745.91;;;16.19;100.00
17785;BME280;9016;53.582;10.062;2022-09-09T04:09:39;100750.44;;;16.19;100.00
17785;BME280;9016;53.582;10.062;2022-09-09T04:12:08;100755.22;;;16.15;100.00
17785;BME280;9016;53.582;10.062;2022-09-09T04:14:39;100755.06;;;16.17;100.00
17785;BME280;9016;53.582;10.062;2022-09-09T04:17:07;100757.44;;;16.10;100.00
17785;BME280;9016;53.582;10.062;2022-09-09T04:19:35;100755.84;;;16.08;100.00
17785;BME280;9016;53.582;10.062;2022-09-09T04:22:03;100759.75;;;16.04;100.00
17785;BME280;9016;53.582;10.062;2022-09-09T04:24:32;100755.59;;;16.00;100.00
17785;BME280;9016;53.582;10.062;2022-09-09T04:27:01;100761.59;;;15.92;100.00
17785;BME280;9016;53.582;10.062;2022-09-09T04:29:29;100760.78;;;15.92;100.00
17785;BME280;9016;53.582;10.062;2022-09-09T04:31:57;100757.22;;;15.91;100.00
17785;BME280;9016;53.582;10.062;2022-09-09T04:34:25;100766.66;;;15.85;100.00
17785;BME280;9016;53.582;10.062;2022-09-09T04:36:53;100767.13;;;15.91;100.00
17785;BME280;9016;53.582;10.062;2022-09-09T04:39:21;100775.91;;;15.93;100.00
17785;BME280;9016;53.582;10.062;2022-09-09T04:41:50;100769.31;;;15.97;100.00
17785;BME280;9016;53.582;10.062;2022-09-09T04:44:19;100768.56;;;15.95;100.00
17785;BME280;9016;53.582;10.062;2022-09-09T04:46:47;100771.88;;;15.98;100.00
17785;BME280;9016;53.582;10.062;2022-09-09T04:49:14;100773.47;;;16.01;100.00
17785;BME280;9016;53.582;10.062;2022-09-09T04:51:42;100767.22;;;16.00;100.00
17785;BME280;9016;53.582;10.062;2022-09-09T04:54:10;100777.47;;;16.06;100.00
17785;BME280;9016;53.582;10.062;2022-09-09T04:56:38;100780.91;;;16.08;100.00
17785;BME280;9016;53.582;10.062;2022-09-09T04:59:07;100780.91;;;16.08;100.00
17785;BME280;9016;53.582;10.062;2022-09-09T05:01:36;100773.19;;;16.04;100.00
17785;BME280;9016;53.582;10.062;2022-09-09T05:04:04;100795.06;;;16.10;100.00
17785;BME280;9016;53.582;10.062;2022-09-09T05:06:32;100782.09;;;16.15;100.00
17785;BME280;9016;53.582;10.062;2022-09-09T05:09:00;100782.22;;;16.14;100.00
17785;BME280;9016;53.582;10.062;2022-09-09T05:11:29;100789.28;;;16.15;100.00
17785;BME280;9016;53.582;10.062;2022-09-09T05:13:58;100788.34;;;16.16;100.00
17785;BME280;9016;53.582;10.062;2022-09-09T05:16:28;100783.91;;;16.15;100.00
17785;BME280;9016;53.582;10.062;2022-09-09T05:18:57;100783.19;;;16.13;100.00
17785;BME280;9016;53.582;10.062;2022-09-09T05:21:25;100789.16;;;16.16;100.00
17785;BME280;9016;53.582;10.062;2022-09-09T05:23:54;100782.81;;;16.17;100.00
17785;BME280;9016;53.582;10.062;2022-09-09T05:26:22;100787.44;;;16.26;100.00
17785;BME280;9016;53.582;10.062;2022-09-09T05:28:51;100786.44;;;16.27;100.00
17785;BME280;9016;53.582;10.062;2022-09-09T05:31:19;100782.38;;;16.33;100.00
17785;BME280;9016;53.582;10.062;2022-09-09T05:33:48;100791.91;;;16.37;100.00
17785;BME280;9016;53.582;10.062;2022-09-09T05:36:18;100786.66;;;16.35;100.00
17785;BME280;9016;53.582;10.062;2022-09-09T05:38:46;100788.59;;;16.44;100.00
17785;BME280;9016;53.582;10.062;2022-09-09T05:41:14;100792.38;;;16.42;100.00
17785;BME280;9016;53.582;10.062;2022-09-09T05:43:44;100796.41;;;16.47;100.00
17785;BME280;9016;53.582;10.062;2022-09-09T05:46:17;100794.09;;;16.54;100.00
17785;BME280;9016;53.582;10.062;2022-09-09T05:48:48;100800.28;;;16.65;100.00
17785;BME280;9016;53.582;10.062;2022-09-09T05:51:20;100809.63;;;16.82;100.00
17785;BME280;9016;53.582;10.062;2022-09-09T05:53:49;100813.22;;;16.92;100.00
17785;BME280;9016;53.582;10.062;2022-09-09T05:56:19;100809.59;;;17.03;100.00
17785;BME280;9016;53.582;10.062;2022-09-09T05:58:48;100819.56;;;17.12;100.00
17785;BME280;9016;53.582;10.062;2022-09-09T06:01:18;100801.44;;;17.14;100.00
17785;BME280;9016;53.582;10.062;2022-09-09T06:03:49;100818.88;;;17.10;99.63
17785;BME280;9016;53.582;10.062;2022-09-09T06:06:18;100810.53;;;17.13;99.21
17785;BME280;9016;53.582;10.062;2022-09-09T06:08:50;100814.25;;;17.21;100.00
17785;BME280;9016;53.582;10.062;2022-09-09T06:11:20;100815.31;;;17.30;99.92
17785;BME280;9016;53.582;10.062;2022-09-09T06:13:49;100823.31;;;17.41;99.00
17785;BME280;9016;53.582;10.062;2022-09-09T06:16:21;100822.97;;;17.55;98.11
17785;BME280;9016;53.582;10.062;2022-09-09T06:18:52;100831.66;;;17.58;97.07
17785;BME280;9016;53.582;10.062;2022-09-09T06:21:24;100831.06;;;17.55;95.71
17785;BME280;9016;53.582;10.062;2022-09-09T06:23:52;100832.78;;;17.56;96.99
17785;BME280;9016;53.582;10.062;2022-09-09T06:26:27;100839.59;;;17.60;97.71
17785;BME280;9016;53.582;10.062;2022-09-09T06:28:57;100837.91;;;17.59;96.90
17785;BME280;9016;53.582;10.062;2022-09-09T06:31:26;100835.47;;;17.56;97.04
17785;BME280;9016;53.582;10.062;2022-09-09T06:33:59;100835.72;;;17.53;97.84
17785;BME280;9016;53.582;10.062;2022-09-09T06:36:29;100836.72;;;17.52;98.44
17785;BME280;9016;53.582;10.062;2022-09-09T06:38:58;100834.19;;;17.50;98.34
17785;BME280;9016;53.582;10.062;2022-09-09T06:41:27;100837.56;;;17.52;98.73
17785;BME280;9016;53.582;10.062;2022-09-09T06:43:56;100839.69;;;17.49;98.29
17785;BME280;9016;53.582;10.062;2022-09-09T06:46:27;100834.19;;;17.50;98.59
17785;BME280;9016;53.582;10.062;2022-09-09T06:48:57;100836.44;;;17.55;98.50
17785;BME280;9016;53.582;10.062;2022-09-09T06:51:29;100835.94;;;17.61;98.86
17785;BME280;9016;53.582;10.062;2022-09-09T06:53:58;100835.06;;;17.60;98.71
17785;BME280;9016;53.582;10.062;2022-09-09T06:56:28;100833.66;;;17.66;99.04
17785;BME280;9016;53.582;10.062;2022-09-09T06:58:58;100841.66;;;17.77;99.04
17785;BME280;9016;53.582;10.062;2022-09-09T07:01:28;100838.00;;;17.88;98.14
17785;BME280;9016;53.582;10.062;2022-09-09T07:03:58;100837.34;;;18.05;95.78
17785;BME280;9016;53.582;10.062;2022-09-09T07:06:29;100829.47;;;18.32;93.97
17785;BME280;9016;53.582;10.062;2022-09-09T07:08:58;100829.25;;;18.54;92.93
17785;BME280;9016;53.582;10.062;2022-09-09T07:11:28;100830.25;;;18.62;91.98
17785;BME280;9016;53.582;10.062;2022-09-09T07:13:58;100825.56;;;18.64;92.19
17785;BME280;9016;53.582;10.062;2022-09-09T07:16:27;100836.78;;;18.69;92.39
17785;BME280;9016;53.582;10.062;2022-09-09T07:18:56;100836.94;;;18.77;91.15
17785;BME280;9016;53.582;10.062;2022-09-09T07:21:25;100837.38;;;18.83;91.02
17785;BME280;9016;53.582;10.062;2022-09-09T07:23:55;100838.22;;;18.83;90.50
17785;BME280;9016;53.582;10.062;2022-09-09T07:26:25;100851.44;;;18.86;90.05
17785;BME280;9016;53.582;10.062;2022-09-09T07:28:54;100847.31;;;18.82;91.00
17785;BME280;9016;53.582;10.062;2022-09-09T07:31:25;100849.72;;;18.85;90.63
17785;BME280;9016;53.582;10.062;2022-09-09T07:33:54;100846.28;;;18.93;89.63
17785;BME280;9016;53.582;10.062;2022-09-09T07:36:23;100842.44;;;19.24;90.38
17785;BME280;9016;53.582;10.062;2022-09-09T07:39:02;100846.00;;;21.65;80.99
17785;BME280;9016;53.582;10.062;2022-09-09T07:41:33;100836.22;;;23.77;71.18
17785;BME280;9016;53.582;10.062;2022-09-09T07:44:04;100837.59;;;25.03;62.13
17785;BME280;9016;53.582;10.062;2022-09-09T07:46:34;100846.22;;;25.52;58.39
17785;BME280;9016;53.582;10.062;2022-09-09T07:49:02;100846.19;;;24.70;58.05
17785;BME280;9016;53.582;10.062;2022-09-09T07:51:32;100853.22;;;25.69;58.20
17785;BME280;9016;53.582;10.062;2022-09-09T07:54:05;100857.94;;;26.19;53.71
17785;BME280;9016;53.582;10.062;2022-09-09T07:56:33;100854.59;;;25.51;57.37
17785;BME280;9016;53.582;10.062;2022-09-09T07:59:02;100854.56;;;25.13;58.08
17785;BME280;9016;53.582;10.062;2022-09-09T08:01:34;100852.16;;;25.33;56.78
17785;BME280;9016;53.582;10.062;2022-09-09T08:04:07;100866.63;;;24.35;58.33
17785;BME280;9016;53.582;10.062;2022-09-09T08:06:40;100867.06;;;23.53;62.20
17785;BME280;9016;53.582;10.062;2022-09-09T08:09:09;100868.38;;;22.77;64.03
17785;BME280;9016;53.582;10.062;2022-09-09T08:11:38;100869.47;;;22.50;65.72
17785;BME280;9016;53.582;10.062;2022-09-09T08:14:06;100870.28;;;22.01;68.55
17785;BME280;9016;53.582;10.062;2022-09-09T08:16:37;100879.63;;;21.98;69.29
17785;BME280;9016;53.582;10.062;2022-09-09T08:19:06;100878.25;;;22.28;68.74
17785;BME280;9016;53.582;10.062;2022-09-09T08:21:36;100873.31;;;22.31;67.54
17785;BME280;9016;53.582;10.062;2022-09-09T08:24:06;100880.47;;;21.99;69.32
17785;BME280;9016;53.582;10.062;2022-09-09T08:26:37;100884.38;;;21.96;70.25
17785;BME280;9016;53.582;10.062;2022-09-09T08:29:07;100883.75;;;22.10;68.88
17785;BME280;9016;53.582;10.062;2022-09-09T08:31:38;100875.91;;;23.47;64.91
17785;BME280;9016;53.582;10.062;2022-09-09T08:34:07;100871.09;;;23.81;63.01
17785;BME280;9016;53.582;10.062;2022-09-09T08:36:37;100881.28;;;24.34;60.23
17785;BME280;9016;53.582;10.062;2022-09-09T08:39:06;100881.94;;;23.89;60.66
17785;BME280;9016;53.582;10.062;2022-09-09T08:41:53;100880.56;;;23.93;60.17
17785;BME280;9016;53.582;10.062;2022-09-09T08:44:31;100884.44;;;24.15;59.43
17785;BME280;9016;53.582;10.062;2022-09-09T08:47:20;100879.59;;;23.78;60.60
17785;BME280;9016;53.582;10.062;2022-09-09T08:50:12;100892.53;;;23.20;62.28
17785;BME280;9016;53.582;10.062;2022-09-09T08:52:50;100885.78;;;23.40;62.85
17785;BME280;9016;53.582;10.062;2022-09-09T08:55:24;100885.38;;;23.19;63.64
17785;BME280;9016;53.582;10.062;2022-09-09T08:57:58;100894.53;;;22.86;64.39
17785;BME280;9016;53.582;10.062;2022-09-09T09:00:32;100893.88;;;22.42;66.53
17785;BME280;9016;53.582;10.062;2022-09-09T09:03:09;100891.56;;;22.55;67.95
17785;BME280;9016;53.582;10.062;2022-09-09T09:05:46;100895.72;;;22.91;64.48
17785;BME280;9016;53.582;10.062;2022-09-09T09:08:21;100896.59;;;23.72;63.65
17785;BME280;9016;53.582;10.062;2022-09-09T09:10:57;100892.19;;;24.73;60.00
17785;BME280;9016;53.582;10.062;2022-09-09T09:13:34;100894.50;;;25.66;56.26
17785;BME280;9016;53.582;10.062;2022-09-09T09:16:14;100890.09;;;27.03;50.59
17785;BME280;9016;53.582;10.062;2022-09-09T09:18:45;100892.72;;;26.61;52.88
17785;BME280;9016;53.582;10.062;2022-09-09T09:21:16;100898.50;;;25.93;52.53
17785;BME280;9016;53.582;10.062;2022-09-09T09:23:52;100898.97;;;25.67;53.91
17785;BME280;9016;53.582;10.062;2022-09-09T09:26:25;100894.13;;;25.32;55.58
17785;BME280;9016;53.582;10.062;2022-09-09T09:28:58;100892.44;;;26.05;54.39
17785;BME280;9016;53.582;10.062;2022-09-09T09:31:26;100892.19;;;26.36;53.61
17785;BME280;9016;53.582;10.062;2022-09-09T09:33:55;100892.00;;;25.79;53.83
17785;BME280;9016;53.582;10.062;2022-09-09T09:36:33;100897.28;;;25.21;53.64
17785;BME280;9016;53.582;10.062;2022-09-09T09:39:03;100905.03;;;24.87;55.46
17785;BME280;9016;53.582;10.062;2022-09-09T09:41:52;100898.56;;;24.88;56.53
17785;BME280;9016;53.582;10.062;2022-09-09T09:44:27;100900.50;;;25.02;56.00
17785;BME280;9016;53.582;10.062;2022-09-09T09:47:06;100890.50;;;25.17;55.11
17785;BME280;9016;53.582;10.062;2022-09-09T09:49:34;100893.53;;;24.69;54.25
17785;BME280;9016;53.582;10.062;2022-09-09T09:52:03;100896.97;;;24.63;56.99
17785;BME280;9016;53.582;10.062;2022-09-09T09:54:34;100887.22;;;24.76;56.74
17785;BME280;9016;53.582;10.062;2022-09-09T09:57:09;100896.81;;;24.64;56.11
17785;BME280;9016;53.582;10.062;2022-09-09T09:59:41;100898.81;;;25.01;56.09
17785;BME280;9016;53.582;10.062;2022-09-09T10:02:18;100894.53;;;24.76;55.26
17785;BME280;9016;53.582;10.062;2022-09-09T10:04:46;100900.09;;;24.51;57.20
17785;BME280;9016;53.582;10.062;2022-09-09T10:07:18;100901.56;;;24.31;57.43
17785;BME280;9016;53.582;10.062;2022-09-09T10:09:50;100895.25;;;24.70;56.96
17785;BME280;9016;53.582;10.062;2022-09-09T10:12:30;100893.19;;;25.25;55.35
17785;BME280;9016;53.582;10.062;2022-09-09T10:15:06;100896.44;;;25.20;55.93
17785;BME280;9016;53.582;10.062;2022-09-09T10:17:54;100891.75;;;24.53;56.53
17785;BME280;9016;53.582;10.062;2022-09-09T10:20:34;100893.22;;;24.64;55.81
17785;BME280;9016;53.582;10.062;2022-09-09T10:23:15;100892.03;;;24.66;56.98
17785;BME280;9016;53.582;10.062;2022-09-09T10:26:00;100886.13;;;24.85;56.23
17785;BME280;9016;53.582;10.062;2022-09-09T10:28:59;100888.06;;;24.77;54.24
17785;BME280;9016;53.582;10.062;2022-09-09T10:31:37;100882.91;;;24.51;54.87
17785;BME280;9016;53.582;10.062;2022-09-09T10:34:23;100883.25;;;24.48;57.39
17785;BME280;9016;53.582;10.062;2022-09-09T10:36:58;100893.94;;;24.19;56.68
17785;BME280;9016;53.582;10.062;2022-09-09T10:39:34;100897.72;;;24.18;57.40
17785;BME280;9016;53.582;10.062;2022-09-09T10:42:09;100877.97;;;24.00;56.38
17785;BME280;9016;53.582;10.062;2022-09-09T10:44:56;100875.66;;;24.35;55.55
17785;BME280;9016;53.582;10.062;2022-09-09T10:47:51;100878.00;;;24.46;55.57
17785;BME280;9016;53.582;10.062;2022-09-09T10:50:43;100879.22;;;24.44;56.85
17785;BME280;9016;53.582;10.062;2022-09-09T10:53:36;100890.72;;;24.15;57.01
17785;BME280;9016;53.582;10.062;2022-09-09T10:56:07;100877.66;;;24.11;56.88
17785;BME280;9016;53.582;10.062;2022-09-09T10:58:40;100879.59;;;23.78;57.77
17785;BME280;9016;53.582;10.062;2022-09-09T11:01:15;100874.81;;;23.72;58.64
17785;BME280;9016;53.582;10.062;2022-09-09T11:03:50;100881.84;;;23.50;59.32
17785;BME280;9016;53.582;10.062;2022-09-09T11:06:25;100873.03;;;23.40;59.36
17785;BME280;9016;53.582;10.062;2022-09-09T11:08:57;100873.19;;;23.39;59.98
17785;BME280;9016;53.582;10.062;2022-09-09T11:11:29;100879.28;;;23.17;60.57
17785;BME280;9016;53.582;10.062;2022-09-09T11:14:01;100880.81;;;23.19;60.32
17785;BME280;9016;53.582;10.062;2022-09-09T11:16:41;100872.47;;;23.29;60.52
17785;BME280;9016;53.582;10.062;2022-09-09T11:19:19;100866.91;;;23.30;59.51
17785;BME280;9016;53.582;10.062;2022-09-09T11:21:50;100875.75;;;23.32;59.59
17785;BME280;9016;53.582;10.062;2022-09-09T11:26:53;100866.38;;;23.51;60.74
17785;BME280;9016;53.582;10.062;2022-09-09T11:29:39;100867.88;;;23.62;59.37
17785;BME280;9016;53.582;10.062;2022-09-09T11:32:27;100876.56;;;23.57;60.21
17785;BME280;9016;53.582;10.062;2022-09-09T11:35:11;100881.47;;;23.62;59.68
17785;BME280;9016;53.582;10.062;2022-09-09T11:38:07;100885.91;;;23.46;59.52
17785;BME280;9016;53.582;10.062;2022-09-09T11:40:41;100886.09;;;23.53;60.09
17785;BME280;9016;53.582;10.062;2022-09-09T11:43:12;100876.91;;;23.54;60.11
17785;BME280;9016;53.582;10.062;2022-09-09T11:45:42;100882.34;;;23.62;60.90
17785;BME280;9016;53.582;10.062;2022-09-09T11:48:23;100885.06;;;23.54;59.57
17785;BME280;9016;53.582;10.062;2022-09-09T11:51:05;100890.84;;;23.51;59.75
17785;BME280;9016;53.582;10.062;2022-09-09T11:53:49;100884.75;;;23.57;59.81
17785;BME280;9016;53.582;10.062;2022-09-09T11:56:25;100890.84;;;23.43;60.91
17785;BME280;9016;53.582;10.062;2022-09-09T11:58:56;100894.09;;;23.38;60.60
17785;BME280;9016;53.582;10.062;2022-09-09T12:01:36;100889.50;;;23.55;61.47
17785;BME280;9016;53.582;10.062;2022-09-09T12:04:17;100884.38;;;23.60;60.72
17785;BME280;9016;53.582;10.062;2022-09-09T12:06:52;100887.44;;;23.73;60.75
17785;BME280;9016;53.582;10.062;2022-09-09T12:12:26;100883.69;;;23.58;60.80
17785;BME280;9016;53.582;10.062;2022-09-09T12:17:42;100883.19;;;23.46;61.06
17785;BME280;9016;53.582;10.062;2022-09-09T12:20:14;100884.38;;;23.52;61.10
17785;BME280;9016;53.582;10.062;2022-09-09T12:23:01;100881.00;;;23.34;61.16
17785;BME280;9016;53.582;10.062;2022-09-09T12:25:47;100880.34;;;23.40;60.83
17785;BME280;9016;53.582;10.062;2022-09-09T12:28:18;100879.78;;;23.44;60.08
17785;BME280;9016;53.582;10.062;2022-09-09T12:30:55;100884.25;;;23.53;59.57
17785;BME280;9016;53.582;10.062;2022-09-09T12:33:34;100884.88;;;23.55;59.75
17785;BME280;9016;53.582;10.062;2022-09-09T12:36:04;100882.16;;;23.64;59.88
17785;BME280;9016;53.582;10.062;2022-09-09T12:38:37;100887.28;;;23.50;60.37
17785;BME280;9016;53.582;10.062;2022-09-09T12:41:18;100886.09;;;23.53;60.91
17785;BME280;9016;53.582;10.062;2022-09-09T12:43:46;100872.00;;;23.41;59.61
17785;BME280;9016;53.582;10.062;2022-09-09T12:46:23;100877.41;;;23.57;59.93
17785;BME280;9016;53.582;10.062;2022-09-09T12:48:54;100872.47;;;23.69;59.42
17785;BME280;9016;53.582;10.062;2022-09-09T12:51:26;100861.44;;;23.46;59.16
17785;BME280;9016;53.582;10.062;2022-09-09T12:53:56;100870.81;;;23.36;60.27
17785;BME280;9016;53.582;10.062;2022-09-09T12:56:27;100871.47;;;23.14;61.05
17785;BME280;9016;53.582;10.062;2022-09-09T12:58:58;100867.22;;;23.03;61.87
17785;BME280;9016;53.582;10.062;2022-09-09T13:01:31;100863.66;;;23.03;61.48
17785;BME280;9016;53.582;10.062;2022-09-09T13:04:00;100871.63;;;23.04;61.92
17785;BME280;9016;53.582;10.062;2022-09-09T13:06:29;100881.31;;;22.99;62.89
17785;BME280;9016;53.582;10.062;2022-09-09T13:09:01;100888.44;;;22.92;63.25
17785;BME280;9016;53.582;10.062;2022-09-09T13:11:34;100887.91;;;22.72;64.48
17785;BME280;9016;53.582;10.062;2022-09-09T13:14:03;100881.47;;;22.39;66.10
17785;BME280;9016;53.582;10.062;2022-09-09T13:16:33;100880.44;;;22.32;66.79
17785;BME280;9016;53.582;10.062;2022-09-09T13:19:13;100878.75;;;22.31;67.05
17785;BME280;9016;53.582;10.062;2022-09-09T13:21:42;100877.72;;;22.24;67.25
17785;BME280;9016;53.582;10.062;2022-09-09T13:24:26;100883.81;;;22.26;67.04
17785;BME280;9016;53.582;10.062;2022-09-09T13:26:57;100884.00;;;22.33;67.18